Bookmark and Share
Track history (hours):
 

Alpine Moment

Last reported at 2014-Apr-21 00:15 UTC. Time now 2014-Apr-24 02:24 UTC.
Position N 26°09' E 055°23'.

Length 183 m; draft 7 m.

Type: Tanker. MMSI: 477185800.

NotesDate/timePositionNaut miles runAvg speedWind from/ knotsBaromVisibWave heightAir tempDewpointWater temp
2014-Apr-21 00:15N 26°09' E 055°23'812.0
2014-Apr-20 23:33N 26°07' E 055°13'5412.9
2014-Apr-20 19:24N 26°15' E 054°14'2713.1
2014-Apr-20 17:19N 26°20' E 053°45'1012.8
2014-Apr-20 16:31N 26°23' E 053°33'1812.5
2014-Apr-20 15:03N 26°30' E 053°15'712.8
2014-Apr-20 14:30N 26°34' E 053°08'1212.9
2014-Apr-20 13:32N 26°41' E 052°56'5613.5
2014-Apr-20 09:25N 27°09' E 052°03'1314.0
2014-Apr-20 08:30N 27°13' E 051°49'7412.5
2014-Apr-20 02:34N 27°55' E 050°40'1313.4
2014-Apr-20 01:33N 28°07' E 050°32'  
2014-Apr-13 11:24N 26°17' E 053°46'1213.9
2014-Apr-13 10:32N 26°12' E 053°58'1414.5
2014-Apr-13 09:33N 26°07' E 054°13'1414.5
2014-Apr-13 08:33N 26°01' E 054°28'1413.9
2014-Apr-13 07:34N 25°55' E 054°42'1414.2
2014-Apr-13 06:33N 25°49' E 054°56'1414.2
2014-Apr-13 05:33N 25°42' E 055°10'  

Dump ship's entire track history

sailing weather and tide predictions

Alpine Moment — VREV7 — position and weather